Time;durP1;ratioP1;P1;durP2;ratioP2;P2;SDS_P1;SDS_P2;PMS_P1;PMS_P2;Temp;Humidity;BMP_temperature;BMP_pressure;BME280_temperature;BME280_humidity;BME280_pressure;Samples;Min_cycle;Max_cycle;Signal;HPM_P1;HPM_P2
2024/04/08 00:01:17;;;;;;;8.57;5.10;;;19.50;99.90;;;;;;4922396;29;20216;-67
2024/04/08 00:03:43;;;;;;;10.73;5.63;;;19.40;99.90;;;;;;4922533;29;20192;-68
2024/04/08 00:06:08;;;;;;;7.57;4.37;;;19.50;99.90;;;;;;4922409;29;20482;-68
2024/04/08 00:08:34;;;;;;;9.00;4.50;;;19.40;99.90;;;;;;4923882;29;20207;-68
2024/04/08 00:11:09;;;;;;;10.37;4.50;;;19.40;99.90;;;;;;4924416;29;20216;-67
2024/04/08 00:13:38;;;;;;;9.40;5.27;;;19.30;99.90;;;;;;4922353;29;20184;-67
2024/04/08 00:16:05;;;;;;;9.43;4.70;;;19.40;99.90;;;;;;4924927;29;20440;-67
2024/04/08 00:18:31;;;;;;;9.70;4.47;;;19.30;99.90;;;;;;4921030;29;20445;-67
2024/04/08 00:21:01;;;;;;;6.67;4.47;;;19.30;99.90;;;;;;4920402;29;20625;-67
2024/04/08 00:23:27;;;;;;;10.60;4.63;;;19.40;99.90;;;;;;4919710;29;20244;-67
2024/04/08 00:25:53;;;;;;;11.47;4.60;;;19.40;99.90;;;;;;4923745;29;20795;-67
2024/04/08 00:28:18;;;;;;;6.30;4.40;;;19.30;99.90;;;;;;4920305;29;20192;-67
2024/04/08 00:30:44;;;;;;;10.77;5.30;;;19.30;99.90;;;;;;4922347;29;20717;-67
2024/04/08 00:33:09;;;;;;;5.50;4.10;;;19.40;99.90;;;;;;4922631;29;20184;-67
2024/04/08 00:35:35;;;;;;;8.73;4.50;;;19.40;99.90;;;;;;4926224;29;20176;-67
2024/04/08 00:38:01;;;;;;;16.00;4.20;;;19.40;99.90;;;;;;4926057;29;20183;-67
2024/04/08 00:40:37;;;;;;;13.03;5.07;;;19.30;99.90;;;;;;4924383;29;20215;-67
2024/04/08 00:43:03;;;;;;;20.33;5.93;;;19.40;99.90;;;;;;4921812;29;22349;-67
2024/04/08 00:45:31;;;;;;;10.27;3.90;;;19.40;99.90;;;;;;4924038;29;20443;-67
2024/04/08 00:47:56;;;;;;;11.00;4.43;;;19.40;99.90;;;;;;4922721;29;22066;-67
2024/04/08 00:50:22;;;;;;;10.73;5.70;;;19.40;99.90;;;;;;4920290;29;20518;-68
2024/04/08 00:52:49;;;;;;;7.90;3.87;;;19.40;99.90;;;;;;4921382;29;20202;-67
2024/04/08 00:55:15;;;;;;;7.40;4.80;;;19.40;99.90;;;;;;4922309;29;20432;-67
2024/04/08 00:57:42;;;;;;;10.30;3.87;;;19.30;99.90;;;;;;4921792;29;20420;-67
2024/04/08 01:00:09;;;;;;;10.80;5.17;;;19.30;99.90;;;;;;4919811;29;20483;-68
2024/04/08 01:02:35;;;;;;;10.03;4.57;;;19.40;99.90;;;;;;4921129;29;20469;-67
2024/04/08 01:05:00;;;;;;;7.23;4.00;;;19.30;99.90;;;;;;4919314;29;20427;-67
2024/04/08 01:07:26;;;;;;;6.87;3.70;;;19.20;99.90;;;;;;4919934;29;20336;-67
2024/04/08 01:09:52;;;;;;;7.90;4.33;;;19.10;99.90;;;;;;4918955;29;20353;-67
2024/04/08 01:12:17;;;;;;;12.70;4.63;;;19.10;99.90;;;;;;4925776;29;20733;-67
2024/04/08 01:14:43;;;;;;;9.43;4.53;;;19.10;99.90;;;;;;4918081;29;20765;-67
2024/04/08 01:17:15;;;;;;;10.30;5.77;;;19.20;99.90;;;;;;4926686;29;20187;-67
2024/04/08 01:19:42;;;;;;;11.83;4.50;;;19.20;99.90;;;;;;4926916;29;20525;-67
2024/04/08 01:22:11;;;;;;;13.80;4.30;;;19.20;99.90;;;;;;4926264;29;20459;-68
2024/04/08 01:24:36;;;;;;;9.40;3.97;;;19.30;99.90;;;;;;4925992;29;20789;-67
2024/04/08 01:27:02;;;;;;;11.87;4.27;;;19.20;99.90;;;;;;4927476;29;20439;-67
2024/04/08 01:29:28;;;;;;;10.13;4.60;;;19.20;99.90;;;;;;4927281;29;20191;-67
2024/04/08 01:31:54;;;;;;;11.93;5.23;;;19.20;99.90;;;;;;4922712;29;20581;-67
2024/04/08 01:34:19;;;;;;;7.07;4.60;;;19.10;99.90;;;;;;4921678;29;20424;-67
2024/04/08 01:36:45;;;;;;;10.43;4.70;;;19.20;99.90;;;;;;4916773;29;20189;-67
2024/04/08 01:39:10;;;;;;;8.10;4.90;;;19.10;99.90;;;;;;4921142;29;20192;-68
2024/04/08 01:41:36;;;;;;;8.67;4.60;;;19.10;99.90;;;;;;4921279;29;20207;-67
2024/04/08 01:44:01;;;;;;;9.40;4.50;;;19.10;99.90;;;;;;4919788;29;20191;-67
2024/04/08 01:46:27;;;;;;;8.60;4.60;;;19.10;99.90;;;;;;4922726;29;20195;-67
2024/04/08 01:48:52;;;;;;;6.87;4.33;;;19.10;99.90;;;;;;4920983;29;20300;-67
2024/04/08 01:51:18;;;;;;;7.70;4.43;;;19.10;99.90;;;;;;4918664;29;20541;-67
2024/04/08 01:53:44;;;;;;;12.40;4.97;;;19.00;99.90;;;;;;4920172;29;20203;-67
2024/04/08 01:56:09;;;;;;;11.77;5.70;;;19.10;99.90;;;;;;4923541;29;20202;-67
2024/04/08 01:58:35;;;;;;;11.97;6.23;;;19.10;99.90;;;;;;4920188;29;20284;-67
2024/04/08 02:01:00;;;;;;;12.80;4.97;;;19.00;99.90;;;;;;4920358;29;20199;-67
2024/04/08 02:03:26;;;;;;;11.37;5.30;;;19.00;99.90;;;;;;4922202;29;20247;-67
2024/04/08 02:05:51;;;;;;;8.90;4.53;;;19.00;99.90;;;;;;4920612;29;20200;-67
2024/04/08 02:08:17;;;;;;;8.33;4.53;;;19.00;99.90;;;;;;4922372;29;20263;-68
2024/04/08 02:10:45;;;;;;;9.93;5.17;;;19.00;99.90;;;;;;4922895;29;20251;-68
2024/04/08 02:13:11;;;;;;;10.30;4.60;;;18.90;99.90;;;;;;4922694;29;20535;-67
2024/04/08 02:15:36;;;;;;;7.73;4.10;;;18.90;99.90;;;;;;4924205;29;20541;-68
2024/04/08 02:18:02;;;;;;;10.00;4.50;;;18.90;99.90;;;;;;4922627;29;20179;-67
2024/04/08 02:20:28;;;;;;;6.23;4.57;;;18.90;99.90;;;;;;4924732;29;20194;-67
2024/04/08 02:22:54;;;;;;;10.43;4.07;;;19.00;99.90;;;;;;4921755;29;20451;-67
2024/04/08 02:25:20;;;;;;;15.17;4.67;;;18.80;99.90;;;;;;4924836;29;21161;-68
2024/04/08 02:28:50;;;;;;;9.30;4.87;;;18.80;99.90;;;;;;5481392;25;20559;-66
2024/04/08 02:31:16;;;;;;;13.13;5.13;;;18.80;99.90;;;;;;5480428;25;21103;-67
2024/04/08 02:33:41;;;;;;;7.63;3.90;;;18.80;99.90;;;;;;5477966;25;20699;-66
2024/04/08 02:36:07;;;;;;;6.90;3.97;;;18.80;99.90;;;;;;5486985;25;20257;-67
2024/04/08 02:38:33;;;;;;;9.63;4.70;;;18.80;99.90;;;;;;5484384;25;20253;-67
2024/04/08 02:40:59;;;;;;;11.63;5.73;;;18.80;99.90;;;;;;5489117;25;20294;-67
2024/04/08 02:43:25;;;;;;;16.53;5.17;;;18.80;99.90;;;;;;5479527;25;20997;-67
2024/04/08 02:45:51;;;;;;;8.00;4.00;;;18.60;99.90;;;;;;5476709;25;20579;-66
2024/04/08 02:48:19;;;;;;;9.93;5.03;;;18.60;99.90;;;;;;5462179;25;20479;-66
2024/04/08 02:50:45;;;;;;;8.50;4.60;;;18.50;99.90;;;;;;5493571;25;20471;-66
2024/04/08 02:53:11;;;;;;;9.43;4.20;;;18.50;99.90;;;;;;5457489;25;20517;-66
2024/04/08 02:55:37;;;;;;;13.13;4.50;;;18.50;99.90;;;;;;5492321;25;20447;-67
2024/04/08 02:58:02;;;;;;;14.90;4.90;;;18.50;99.90;;;;;;5486029;25;20230;-66
2024/04/08 03:00:28;;;;;;;10.67;4.27;;;18.50;99.90;;;;;;5496861;25;20586;-66
2024/04/08 03:02:54;;;;;;;9.13;4.23;;;18.50;99.90;;;;;;5481332;25;20223;-67
2024/04/08 03:05:20;;;;;;;9.97;4.63;;;18.50;99.90;;;;;;5496910;25;20315;-67
2024/04/08 03:07:45;;;;;;;12.37;5.03;;;18.40;99.90;;;;;;5487804;25;20503;-67
2024/04/08 03:10:11;;;;;;;12.00;4.50;;;18.40;99.90;;;;;;5490759;25;20240;-67
2024/04/08 03:12:36;;;;;;;5.70;4.20;;;18.40;99.90;;;;;;5501263;25;20229;-67
2024/04/08 03:15:02;;;;;;;9.83;4.30;;;18.30;99.90;;;;;;5494501;25;20217;-67
2024/04/08 03:17:28;;;;;;;9.17;5.17;;;18.30;99.90;;;;;;5493874;25;20261;-67
2024/04/08 03:19:55;;;;;;;8.73;4.90;;;18.30;99.90;;;;;;5458528;26;20239;-67
2024/04/08 03:22:21;;;;;;;10.43;5.50;;;18.30;99.90;;;;;;5484765;25;21012;-67
2024/04/08 03:24:46;;;;;;;8.70;4.77;;;18.30;99.90;;;;;;5493575;25;20556;-67
2024/04/08 03:27:12;;;;;;;8.00;4.60;;;18.30;99.90;;;;;;5494066;25;20472;-67
2024/04/08 03:29:38;;;;;;;5.13;4.23;;;18.30;99.90;;;;;;5496369;25;20712;-67
2024/04/08 03:32:04;;;;;;;12.80;4.73;;;18.30;99.90;;;;;;5482130;25;20483;-67
2024/04/08 03:34:31;;;;;;;11.67;5.20;;;18.30;99.90;;;;;;5488682;25;20226;-67
2024/04/08 03:36:57;;;;;;;11.50;4.70;;;18.30;99.90;;;;;;5477006;25;20296;-67
2024/04/08 03:39:23;;;;;;;6.83;4.27;;;18.30;99.90;;;;;;5472325;26;20534;-67
2024/04/08 03:41:50;;;;;;;9.43;5.00;;;18.20;99.90;;;;;;5465613;26;20468;-67
2024/04/08 03:44:16;;;;;;;12.43;5.30;;;18.30;99.90;;;;;;5435295;26;20334;-67
2024/04/08 03:46:41;;;;;;;13.30;5.40;;;18.30;99.90;;;;;;5467143;26;20873;-67
2024/04/08 03:49:07;;;;;;;7.50;4.73;;;18.20;99.90;;;;;;5462211;26;20270;-67
2024/04/08 03:51:33;;;;;;;10.30;4.80;;;18.20;99.90;;;;;;5470724;26;20238;-67
2024/04/08 03:53:58;;;;;;;7.33;4.10;;;18.10;99.90;;;;;;5471832;26;20271;-67
2024/04/08 03:56:24;;;;;;;8.67;4.50;;;18.10;99.90;;;;;;5468593;26;20234;-68
2024/04/08 03:58:49;;;;;;;10.57;4.23;;;18.10;99.90;;;;;;5469299;26;20281;-68
2024/04/08 04:01:15;;;;;;;9.63;5.07;;;18.10;99.90;;;;;;5462308;26;20229;-68
2024/04/08 04:03:41;;;;;;;7.73;4.60;;;18.10;99.90;;;;;;5466254;26;20242;-68
2024/04/08 04:06:06;;;;;;;15.27;4.90;;;18.00;99.90;;;;;;5465532;26;20270;-67
2024/04/08 04:08:32;;;;;;;8.10;4.30;;;18.00;99.90;;;;;;5479164;26;20239;-67
2024/04/08 04:10:58;;;;;;;11.70;5.10;;;18.00;99.90;;;;;;5444311;26;20331;-67
2024/04/08 04:13:24;;;;;;;10.00;5.00;;;17.90;99.90;;;;;;5484725;26;20546;-67
2024/04/08 04:15:50;;;;;;;16.57;5.50;;;17.90;99.90;;;;;;5488265;26;20528;-67
2024/04/08 04:18:15;;;;;;;8.87;4.53;;;17.90;99.90;;;;;;5476231;26;20328;-68
2024/04/08 04:20:46;;;;;;;10.17;5.07;;;17.90;99.90;;;;;;5460327;26;20405;-68
2024/04/08 04:23:19;;;;;;;8.97;5.03;;;17.90;99.90;;;;;;5459617;26;20602;-68
2024/04/08 04:25:52;;;;;;;9.57;5.73;;;17.90;99.90;;;;;;5466158;26;20522;-68
2024/04/08 04:28:18;;;;;;;8.80;4.57;;;17.80;99.90;;;;;;5444044;26;20464;-68
2024/04/08 04:30:52;;;;;;;10.90;5.57;;;17.80;99.90;;;;;;5466536;26;20521;-68
2024/04/08 04:33:17;;;;;;;10.90;4.43;;;17.80;99.90;;;;;;5471251;26;20224;-68
2024/04/08 04:35:51;;;;;;;8.83;4.90;;;17.70;99.90;;;;;;5471481;26;20513;-68
2024/04/08 04:38:17;;;;;;;18.33;4.80;;;17.80;99.90;;;;;;5463799;26;20289;-68
2024/04/08 04:40:43;;;;;;;14.67;5.30;;;17.70;99.90;;;;;;5476894;26;20470;-68
2024/04/08 04:43:08;;;;;;;8.83;4.60;;;17.70;99.90;;;;;;5471382;26;20335;-68
2024/04/08 04:45:34;;;;;;;10.50;5.73;;;17.70;99.90;;;;;;5474376;26;20226;-68
2024/04/08 04:48:00;;;;;;;9.60;5.23;;;17.70;99.90;;;;;;5468193;26;20279;-68
2024/04/08 04:50:25;;;;;;;9.90;4.70;;;17.70;99.90;;;;;;5472697;26;20231;-69
2024/04/08 04:52:51;;;;;;;7.87;4.80;;;17.60;99.90;;;;;;5477636;26;20231;-68
2024/04/08 04:55:16;;;;;;;9.10;4.80;;;17.70;99.90;;;;;;5469629;26;20231;-68
2024/04/08 04:57:42;;;;;;;13.37;5.43;;;17.70;99.90;;;;;;5468129;26;20317;-68
2024/04/08 05:00:09;;;;;;;12.10;5.30;;;17.70;99.90;;;;;;5468198;26;20315;-68
2024/04/08 05:02:35;;;;;;;8.97;5.17;;;17.70;99.90;;;;;;5470254;26;20251;-68
2024/04/08 05:05:00;;;;;;;14.80;5.27;;;17.70;99.90;;;;;;5469700;26;20576;-68
2024/04/08 05:07:26;;;;;;;11.30;5.83;;;17.60;99.90;;;;;;5473059;26;20466;-68
2024/04/08 05:09:53;;;;;;;6.10;4.63;;;17.70;99.90;;;;;;5478732;26;20376;-68
2024/04/08 05:12:19;;;;;;;10.00;4.80;;;17.70;99.90;;;;;;5461797;26;20281;-68
2024/04/08 05:14:44;;;;;;;13.37;5.23;;;17.70;99.90;;;;;;5473183;26;20452;-68
2024/04/08 05:17:10;;;;;;;9.60;4.20;;;17.70;99.90;;;;;;5466799;26;20231;-68
2024/04/08 05:19:36;;;;;;;9.63;5.60;;;17.70;99.90;;;;;;5467483;26;20231;-68
2024/04/08 05:22:03;;;;;;;10.03;4.90;;;17.70;99.90;;;;;;5464090;26;20694;-69
2024/04/08 05:24:29;;;;;;;12.57;5.60;;;17.70;99.90;;;;;;5459715;26;20473;-68
2024/04/08 05:26:55;;;;;;;10.73;4.77;;;17.70;99.90;;;;;;5464757;26;20531;-68
2024/04/08 05:29:23;;;;;;;9.10;5.10;;;17.80;99.90;;;;;;5462242;26;20464;-68
2024/04/08 05:31:50;;;;;;;11.17;4.93;;;17.70;99.90;;;;;;5458756;26;20793;-68
2024/04/08 05:34:15;;;;;;;6.50;5.00;;;17.80;99.90;;;;;;5458141;26;20644;-68
2024/04/08 05:36:41;;;;;;;11.50;6.10;;;17.70;99.90;;;;;;5466881;26;20490;-68
2024/04/08 05:39:06;;;;;;;10.57;5.27;;;17.80;99.90;;;;;;5468506;26;20281;-68
2024/04/08 05:41:32;;;;;;;12.43;5.20;;;17.80;99.90;;;;;;5461001;26;20231;-68
2024/04/08 05:43:58;;;;;;;10.10;4.60;;;17.80;99.90;;;;;;5462339;26;20285;-68
2024/04/08 05:46:24;;;;;;;8.87;5.27;;;17.80;99.90;;;;;;5462810;26;20224;-68
2024/04/08 05:48:50;;;;;;;13.90;5.77;;;17.80;99.90;;;;;;5465265;26;20711;-68
2024/04/08 05:51:16;;;;;;;8.73;4.60;;;17.90;99.90;;;;;;5460851;26;20512;-68
2024/04/08 05:53:41;;;;;;;10.47;5.40;;;17.90;99.90;;;;;;5462338;26;20370;-68
2024/04/08 05:56:07;;;;;;;11.57;5.27;;;17.90;99.90;;;;;;5457982;26;20223;-68
2024/04/08 05:58:32;;;;;;;10.80;5.50;;;17.90;99.90;;;;;;5471889;26;20231;-68
2024/04/08 06:00:58;;;;;;;12.13;5.60;;;18.00;99.90;;;;;;5461692;26;20355;-68
2024/04/08 06:03:24;;;;;;;7.97;5.07;;;18.00;99.90;;;;;;5457577;26;20235;-68
2024/04/08 06:05:49;;;;;;;10.50;5.57;;;18.00;99.90;;;;;;5467977;26;20235;-68
2024/04/08 06:08:15;;;;;;;9.93;4.80;;;17.80;99.90;;;;;;5464569;26;20231;-68
2024/04/08 06:10:44;;;;;;;9.57;5.43;;;17.80;99.90;;;;;;5464334;26;20231;-68
2024/04/08 06:13:10;;;;;;;11.20;4.97;;;17.90;99.90;;;;;;5459668;26;20281;-68
2024/04/08 06:15:36;;;;;;;13.13;6.30;;;17.90;99.90;;;;;;5463503;26;20452;-68
2024/04/08 06:18:02;;;;;;;11.37;5.60;;;18.00;99.90;;;;;;5454811;26;20228;-68
2024/04/08 06:20:27;;;;;;;12.23;5.87;;;18.00;99.90;;;;;;5467385;26;20277;-68
2024/04/08 06:22:54;;;;;;;14.37;5.93;;;18.10;99.90;;;;;;5461695;26;20697;-68
2024/04/08 06:25:19;;;;;;;15.30;5.60;;;18.20;99.90;;;;;;5429467;26;20228;-68
2024/04/08 06:27:48;;;;;;;11.33;5.77;;;18.20;99.90;;;;;;5461245;26;20472;-68
2024/04/08 06:30:14;;;;;;;18.37;5.30;;;18.20;99.90;;;;;;5459113;26;20231;-68
2024/04/08 06:32:39;;;;;;;13.87;5.60;;;18.20;99.90;;;;;;5453962;26;20505;-68
2024/04/08 06:35:05;;;;;;;10.40;5.40;;;18.30;99.90;;;;;;5459029;26;20344;-69
2024/04/08 06:37:31;;;;;;;8.30;5.60;;;18.30;99.90;;;;;;5464430;26;20335;-69
2024/04/08 06:39:57;;;;;;;12.23;5.30;;;18.30;99.90;;;;;;5467503;26;20278;-69
2024/04/08 06:42:22;;;;;;;11.93;5.60;;;18.30;99.90;;;;;;5404706;26;20469;-68
2024/04/08 06:44:48;;;;;;;8.43;6.50;;;18.40;99.90;;;;;;5459072;26;20239;-68
2024/04/08 06:47:15;;;;;;;11.23;5.90;;;18.40;99.90;;;;;;5464597;26;20582;-68
2024/04/08 06:49:41;;;;;;;16.63;6.77;;;18.40;99.90;;;;;;5459774;26;20528;-68
2024/04/08 06:52:07;;;;;;;10.20;4.87;;;18.50;99.90;;;;;;5459155;26;20472;-68
2024/04/08 06:54:32;;;;;;;11.10;5.03;;;18.50;99.90;;;;;;5461811;26;20879;-68
2024/04/08 06:56:58;;;;;;;10.30;5.10;;;18.60;99.90;;;;;;5465435;26;20303;-69
2024/04/08 06:59:25;;;;;;;15.33;4.70;;;18.70;99.90;;;;;;5460969;26;20267;-68
2024/04/08 07:01:51;;;;;;;14.33;7.03;;;18.70;99.90;;;;;;5463339;26;20282;-68
2024/04/08 07:04:19;;;;;;;13.53;5.80;;;18.80;99.90;;;;;;5456106;26;20456;-68
2024/04/08 07:06:45;;;;;;;15.40;7.00;;;18.80;99.90;;;;;;5453019;26;20580;-68
2024/04/08 07:09:11;;;;;;;14.30;6.40;;;18.90;99.90;;;;;;5480051;26;20455;-66
2024/04/08 07:11:36;;;;;;;17.50;5.73;;;18.90;99.90;;;;;;5467891;26;20289;-68
2024/04/08 07:14:02;;;;;;;12.87;6.37;;;19.00;99.90;;;;;;5467541;26;20269;-68
2024/04/08 07:16:28;;;;;;;15.73;6.40;;;19.10;99.90;;;;;;5467281;26;20278;-68
2024/04/08 07:18:53;;;;;;;7.83;5.03;;;19.10;99.90;;;;;;5465666;26;20243;-68
2024/04/08 07:21:19;;;;;;;8.50;4.23;;;19.20;99.90;;;;;;5471584;26;20531;-69
2024/04/08 07:23:45;;;;;;;17.37;4.80;;;19.20;99.90;;;;;;5470403;26;20224;-68
2024/04/08 07:26:11;;;;;;;11.77;6.47;;;19.30;99.90;;;;;;5473851;26;20244;-68
2024/04/08 07:28:36;;;;;;;13.80;8.27;;;19.30;99.90;;;;;;5466487;26;20228;-68
2024/04/08 07:31:02;;;;;;;8.50;4.87;;;19.40;99.90;;;;;;5466585;26;20561;-68
2024/04/08 07:33:28;;;;;;;9.93;4.57;;;19.50;99.90;;;;;;5468400;26;20231;-68
2024/04/08 07:35:54;;;;;;;15.37;5.07;;;19.50;99.90;;;;;;5464070;26;20235;-67
2024/04/08 07:38:19;;;;;;;15.97;5.07;;;19.60;99.90;;;;;;5457062;26;20512;-68
2024/04/08 07:40:45;;;;;;;14.97;4.70;;;19.60;99.90;;;;;;5470236;26;20748;-67
2024/04/08 07:43:10;;;;;;;10.60;3.93;;;19.70;99.90;;;;;;5473006;26;20338;-67
2024/04/08 07:45:36;;;;;;;9.57;3.87;;;19.70;99.90;;;;;;5462820;26;20578;-67
2024/04/08 07:48:02;;;;;;;8.50;4.30;;;19.80;99.90;;;;;;5462851;26;20224;-67
2024/04/08 07:50:27;;;;;;;6.40;4.07;;;19.90;99.90;;;;;;5461494;26;20240;-67
2024/04/08 07:52:53;;;;;;;9.30;4.70;;;20.00;99.90;;;;;;5468226;26;20278;-67
2024/04/08 07:55:18;;;;;;;8.13;3.77;;;20.10;99.90;;;;;;5463897;26;20282;-67
2024/04/08 07:57:47;;;;;;;17.43;4.70;;;20.10;99.90;;;;;;5465184;26;20309;-65
2024/04/08 08:00:14;;;;;;;8.93;3.67;;;20.20;99.90;;;;;;5467196;26;20278;-65
2024/04/08 08:02:39;;;;;;;9.07;3.60;;;20.30;99.90;;;;;;5468334;26;20553;-65
2024/04/08 08:05:06;;;;;;;7.13;3.00;;;20.40;99.90;;;;;;5468337;26;21361;-65
2024/04/08 08:07:31;;;;;;;5.87;3.43;;;20.50;99.90;;;;;;5468626;26;20281;-65
2024/04/08 08:09:57;;;;;;;5.83;4.00;;;20.60;99.90;;;;;;5470076;26;20455;-66
2024/04/08 08:12:23;;;;;;;8.20;3.20;;;20.60;99.90;;;;;;5464474;26;20319;-66
2024/04/08 08:14:48;;;;;;;6.40;3.20;;;20.70;99.90;;;;;;5465322;26;20752;-66
2024/04/08 08:17:14;;;;;;;6.90;4.00;;;20.80;99.90;;;;;;5462865;26;20236;-66
2024/04/08 08:19:39;;;;;;;9.30;3.87;;;20.90;99.90;;;;;;5471242;26;20235;-65
2024/04/08 08:22:06;;;;;;;16.33;4.10;;;21.00;99.90;;;;;;5442803;26;20235;-65
2024/04/08 08:24:32;;;;;;;8.60;3.37;;;21.10;99.90;;;;;;5468236;26;20231;-66
2024/04/08 08:26:57;;;;;;;7.63;3.40;;;21.30;99.90;;;;;;5456152;26;20532;-65
2024/04/08 08:29:23;;;;;;;7.43;3.23;;;21.40;99.90;;;;;;5465842;26;20289;-65
2024/04/08 08:31:49;;;;;;;5.67;3.37;;;21.40;99.90;;;;;;5469506;26;20235;-66
2024/04/08 08:34:15;;;;;;;6.73;3.20;;;21.60;99.90;;;;;;5469493;26;20259;-65
2024/04/08 08:36:40;;;;;;;6.93;2.90;;;21.60;99.90;;;;;;5461637;26;20734;-66
2024/04/08 08:39:06;;;;;;;5.97;3.47;;;21.70;99.20;;;;;;5477731;26;20724;-66
2024/04/08 08:41:33;;;;;;;5.40;3.43;;;21.90;98.60;;;;;;5435212;26;20567;-66
2024/04/08 08:44:02;;;;;;;9.33;3.30;;;22.00;98.40;;;;;;5466193;26;20278;-66
2024/04/08 08:46:28;;;;;;;9.30;4.27;;;22.00;98.30;;;;;;5460301;26;21061;-66
2024/04/08 08:48:59;;;;;;;7.80;3.13;;;22.10;97.80;;;;;;5455729;26;20544;-66
2024/04/08 08:51:26;;;;;;;10.23;4.00;;;22.20;97.60;;;;;;5465657;26;20507;-66
2024/04/08 08:53:52;;;;;;;6.40;3.43;;;22.20;97.20;;;;;;5466348;26;20573;-66
2024/04/08 08:56:17;;;;;;;12.77;4.10;;;22.30;97.40;;;;;;5460407;26;20469;-66
2024/04/08 08:58:53;;;;;;;10.10;3.77;;;22.40;97.00;;;;;;5457803;26;20223;-66
2024/04/08 09:01:19;;;;;;;7.73;3.60;;;22.50;97.10;;;;;;5460240;26;20230;-66
2024/04/08 09:03:45;;;;;;;11.40;4.10;;;22.60;96.80;;;;;;5459445;26;20563;-66
2024/04/08 09:06:11;;;;;;;9.73;3.40;;;22.70;96.50;;;;;;5471818;26;20487;-66
2024/04/08 09:08:36;;;;;;;12.03;4.20;;;22.70;96.30;;;;;;5468556;26;20239;-66
2024/04/08 09:11:10;;;;;;;6.07;3.90;;;22.80;96.20;;;;;;5462417;26;20277;-66
2024/04/08 09:13:35;;;;;;;8.30;3.90;;;22.90;95.80;;;;;;5465391;26;20235;-66
2024/04/08 09:16:01;;;;;;;7.43;3.80;;;23.00;95.50;;;;;;5465421;26;21727;-66
2024/04/08 09:18:27;;;;;;;7.50;4.80;;;23.10;95.30;;;;;;5463677;26;20289;-66
2024/04/08 09:20:52;;;;;;;7.27;4.33;;;23.10;93.80;;;;;;5462259;26;20243;-66
2024/04/08 09:23:18;;;;;;;9.10;3.03;;;23.20;93.30;;;;;;5470812;26;20801;-66
2024/04/08 09:25:44;;;;;;;6.13;3.40;;;23.20;93.20;;;;;;5459771;26;20286;-66
2024/04/08 09:28:11;;;;;;;5.40;3.50;;;23.20;92.90;;;;;;5452835;26;20458;-66
2024/04/08 09:30:37;;;;;;;7.87;3.27;;;23.30;92.90;;;;;;5461034;26;21114;-66
2024/04/08 09:33:05;;;;;;;5.10;3.17;;;23.40;92.50;;;;;;5431107;26;20467;-66
2024/04/08 09:35:40;;;;;;;7.50;4.77;;;23.50;92.10;;;;;;5466005;26;20464;-66
2024/04/08 09:38:11;;;;;;;12.80;2.97;;;23.60;92.20;;;;;;5460536;26;21146;-66
2024/04/08 09:40:39;;;;;;;18.53;3.60;;;23.60;91.10;;;;;;5463913;26;20555;-66
2024/04/08 09:43:06;;;;;;;7.23;3.97;;;23.70;91.20;;;;;;5427351;26;20465;-66
2024/04/08 09:45:33;;;;;;;11.53;3.90;;;23.80;91.00;;;;;;5463213;26;20890;-66
2024/04/08 09:47:59;;;;;;;7.30;3.93;;;23.90;90.70;;;;;;5466814;26;20690;-68
2024/04/08 09:50:27;;;;;;;7.07;3.60;;;23.90;90.40;;;;;;5460753;26;20472;-68
2024/04/08 09:52:53;;;;;;;11.93;5.70;;;24.00;89.70;;;;;;5459079;26;20227;-68
2024/04/08 09:55:27;;;;;;;10.97;3.90;;;24.10;89.30;;;;;;5462858;26;20480;-68
2024/04/08 09:57:56;;;;;;;8.40;3.43;;;24.20;88.50;;;;;;5465915;26;20510;-68
2024/04/08 10:00:24;;;;;;;9.33;3.70;;;24.40;88.20;;;;;;5464875;26;20524;-68
2024/04/08 10:02:52;;;;;;;4.70;3.20;;;24.40;87.80;;;;;;5459192;26;21308;-69
2024/04/08 10:05:19;;;;;;;7.20;3.40;;;24.60;87.20;;;;;;5465615;26;20452;-67
2024/04/08 10:07:45;;;;;;;8.90;3.50;;;24.60;85.60;;;;;;5458286;26;20773;-68
2024/04/08 10:10:13;;;;;;;8.10;3.70;;;24.70;86.50;;;;;;5462883;26;21353;-68
2024/04/08 10:12:42;;;;;;;8.47;3.33;;;24.90;85.30;;;;;;5463355;25;20458;-68
2024/04/08 10:15:14;;;;;;;10.30;3.47;;;25.10;86.10;;;;;;5458794;26;20575;-67
2024/04/08 10:17:44;;;;;;;7.67;3.60;;;25.30;83.70;;;;;;5461089;26;20516;-68
2024/04/08 10:20:13;;;;;;;6.37;3.60;;;25.50;82.50;;;;;;5463151;26;20543;-68
2024/04/08 10:22:39;;;;;;;7.83;3.47;;;25.70;81.20;;;;;;5456582;26;21109;-68
2024/04/08 10:25:25;;;;;;;8.07;3.87;;;25.80;80.90;;;;;;5460025;26;20480;-68
2024/04/08 10:28:05;;;;;;;9.70;3.93;;;25.80;81.00;;;;;;5455186;26;20644;-68
2024/04/08 10:30:32;;;;;;;13.83;4.70;;;26.00;79.80;;;;;;5459743;26;21550;-68
2024/04/08 10:32:59;;;;;;;11.70;3.50;;;26.00;79.00;;;;;;5432837;26;20456;-68
2024/04/08 10:35:24;;;;;;;7.47;3.70;;;26.20;79.50;;;;;;5468240;26;20535;-68
2024/04/08 10:37:50;;;;;;;10.63;3.37;;;26.40;78.70;;;;;;5460694;26;20461;-67
2024/04/08 10:40:19;;;;;;;5.57;3.17;;;26.50;78.40;;;;;;5459879;26;21025;-68
2024/04/08 10:42:44;;;;;;;7.53;3.53;;;26.60;76.20;;;;;;5468074;26;21227;-68
2024/04/08 10:45:10;;;;;;;10.13;4.57;;;26.60;75.70;;;;;;5461514;26;20905;-68
2024/04/08 10:47:35;;;;;;;7.63;3.60;;;26.60;75.60;;;;;;5427222;26;20220;-68
2024/04/08 10:50:01;;;;;;;11.23;3.80;;;26.60;74.00;;;;;;5430302;26;20238;-68
2024/04/08 10:52:32;;;;;;;9.70;3.30;;;26.40;74.30;;;;;;5453594;26;20359;-68
2024/04/08 10:54:58;;;;;;;10.07;4.33;;;26.30;74.60;;;;;;5467868;26;20273;-68
2024/04/08 10:57:26;;;;;;;7.70;3.37;;;26.10;73.70;;;;;;5467625;26;20469;-68
2024/04/08 10:59:52;;;;;;;5.47;3.60;;;25.90;73.80;;;;;;5458965;26;20255;-68
2024/04/08 11:02:18;;;;;;;10.87;4.53;;;25.80;73.50;;;;;;5456143;26;21287;-68
2024/04/08 11:04:44;;;;;;;9.87;3.70;;;25.80;74.10;;;;;;5462336;26;20237;-68
2024/04/08 11:07:10;;;;;;;4.50;3.40;;;25.70;75.50;;;;;;5468635;26;20516;-68
2024/04/08 11:09:36;;;;;;;7.30;5.17;;;25.60;76.60;;;;;;5460466;26;20224;-68
2024/04/08 11:12:06;;;;;;;6.57;2.97;;;25.60;77.50;;;;;;5463703;26;20526;-68
2024/04/08 11:14:31;;;;;;;17.47;4.67;;;25.60;77.60;;;;;;5466506;26;20543;-69
2024/04/08 11:17:01;;;;;;;6.67;3.47;;;25.80;77.80;;;;;;5470827;26;20463;-68
2024/04/08 11:19:29;;;;;;;7.90;3.27;;;25.80;77.20;;;;;;5425805;26;20262;-69
2024/04/08 11:21:57;;;;;;;12.40;3.93;;;26.10;76.60;;;;;;5461624;26;20504;-69
2024/04/08 11:24:24;;;;;;;8.30;3.23;;;26.40;76.30;;;;;;5465640;26;20573;-68
2024/04/08 11:26:49;;;;;;;7.47;3.80;;;26.60;75.60;;;;;;5458562;26;21411;-68
2024/04/08 11:29:15;;;;;;;6.50;3.20;;;26.70;75.00;;;;;;5430280;26;20589;-69
2024/04/08 11:31:43;;;;;;;7.00;3.43;;;26.70;74.80;;;;;;5455399;26;20269;-69
2024/04/08 11:34:08;;;;;;;7.63;3.83;;;26.60;75.40;;;;;;5461624;26;20603;-69
2024/04/08 11:36:35;;;;;;;10.17;4.40;;;26.70;75.40;;;;;;5461320;26;21047;-67
2024/04/08 11:39:00;;;;;;;8.00;3.67;;;26.80;76.10;;;;;;5461352;26;20265;-67
2024/04/08 11:41:26;;;;;;;5.23;3.80;;;26.90;76.20;;;;;;5460997;26;20463;-67
2024/04/08 11:43:51;;;;;;;6.93;3.70;;;27.20;74.90;;;;;;5433810;26;20267;-68
2024/04/08 11:46:17;;;;;;;5.90;3.80;;;27.30;73.00;;;;;;5461956;26;20235;-69
2024/04/08 11:48:45;;;;;;;6.77;3.93;;;27.50;72.30;;;;;;5461235;26;20274;-69
2024/04/08 11:51:10;;;;;;;10.00;3.73;;;27.80;72.00;;;;;;5463640;26;20237;-69
2024/04/08 11:53:36;;;;;;;11.80;3.37;;;28.10;70.90;;;;;;5455759;26;20452;-69
2024/04/08 11:56:02;;;;;;;13.03;3.57;;;28.20;68.80;;;;;;5454089;26;20219;-69
2024/04/08 11:58:28;;;;;;;8.17;3.63;;;28.20;68.80;;;;;;5458803;26;20224;-69
2024/04/08 12:00:53;;;;;;;6.97;3.30;;;28.60;65.90;;;;;;5458002;26;20504;-69
2024/04/08 12:03:19;;;;;;;5.33;3.30;;;28.80;64.40;;;;;;5460284;26;20631;-69
2024/04/08 12:05:44;;;;;;;11.80;5.20;;;29.20;64.30;;;;;;5461281;26;20603;-69
2024/04/08 12:08:10;;;;;;;10.53;3.70;;;29.70;63.00;;;;;;5437845;26;20732;-69
2024/04/08 12:10:35;;;;;;;9.40;3.73;;;30.30;63.00;;;;;;5465624;26;20261;-71
2024/04/08 12:13:26;;;;;;;8.63;3.73;;;30.90;60.60;;;;;;5464424;26;20231;-69
2024/04/08 12:15:52;;;;;;;6.23;3.20;;;30.80;58.20;;;;;;5455126;26;20230;-68
2024/04/08 12:18:17;;;;;;;7.90;2.93;;;31.30;57.90;;;;;;5457017;26;20574;-68
2024/04/08 12:20:43;;;;;;;7.00;4.20;;;31.50;56.40;;;;;;5451504;26;20391;-67
2024/04/08 12:24:05;;;;;;;6.30;4.33;;;31.10;55.20;;;;;;5453682;26;20243;-68
2024/04/08 12:26:31;;;;;;;4.67;3.30;;;31.50;55.50;;;;;;5467636;26;20272;-68
2024/04/08 12:28:56;;;;;;;7.23;3.90;;;32.10;53.80;;;;;;5467226;26;20471;-68
2024/04/08 12:31:22;;;;;;;7.63;3.77;;;32.40;52.40;;;;;;5426634;26;20276;-69
2024/04/08 12:33:48;;;;;;;5.00;3.20;;;32.90;51.90;;;;;;5460580;26;20757;-68
2024/04/08 12:36:14;;;;;;;10.03;5.20;;;33.60;50.80;;;;;;5469441;26;20228;-68
2024/04/08 12:38:40;;;;;;;4.87;3.50;;;34.10;51.10;;;;;;5461826;26;20284;-69
2024/04/08 12:41:06;;;;;;;11.60;3.60;;;34.30;49.40;;;;;;5463103;26;20447;-67